ENHV/HVG METAR and TAF weather

Enter ICAO airport designator
Station Type Date Time Source
ENHV METAR 2018/06/25 15:50 UTC NOAA

ENHV 251550Z VRB02KT CAVOK 10/07 Q1010


Station Type Date Time Source
ENHV Decoded METAR 2018/06/25 15:50 UTC NOAA

Honningsvag / Valan, Norway (ENHV) 71-01N 025-59E 14M
Jun 25, 2018 - 11:50 AM EDT / 2018.06.25 1550 UTC
Wind: Variable at 2 MPH (2 KT):0
Visibility: greater than 7 mile(s):0
Temperature: 50 F (10 C)
Dew Point: 44 F (7 C)
Relative Humidity: 81%
Pressure (altimeter): 29.83 in. Hg (1010 hPa)
ob: ENHV 251550Z VRB02KT CAVOK 10/07 Q1010
cycle: 16

Station Type Date Time Source
ENHV TAF UTC NOAA

Error!


Example: see airport list